Time;durP1;ratioP1;P1;durP2;ratioP2;P2;SDS_P1;SDS_P2;PMS_P1;PMS_P2;Temp;Humidity;BMP_temperature;BMP_pressure;BME280_temperature;BME280_humidity;BME280_pressure;Samples;Min_cycle;Max_cycle;Signal;HPM_P1;HPM_P2
2023/08/06 00:01:22;;;;;;;6.30;3.20;;;19.50;78.70;;;;;;5043125;28;20962;-83
2023/08/06 00:03:50;;;;;;;6.27;3.23;;;19.40;78.70;;;;;;5048703;28;20466;-80
2023/08/06 00:06:18;;;;;;;7.60;3.50;;;19.40;78.70;;;;;;5046966;28;20483;-81
2023/08/06 00:08:46;;;;;;;6.47;3.30;;;19.40;78.70;;;;;;5044050;28;20546;-79
2023/08/06 00:11:16;;;;;;;7.17;3.00;;;19.50;78.70;;;;;;5043889;28;20607;-79
2023/08/06 00:13:44;;;;;;;7.80;3.20;;;19.50;78.70;;;;;;5046232;28;21152;-80
2023/08/06 00:16:12;;;;;;;5.90;2.73;;;19.50;78.70;;;;;;5046973;28;20466;-79
2023/08/06 00:18:41;;;;;;;7.90;2.80;;;19.50;78.70;;;;;;5045662;28;20458;-78
2023/08/06 00:21:12;;;;;;;6.60;3.90;;;19.50;78.70;;;;;;5039691;28;20458;-80
2023/08/06 00:23:40;;;;;;;5.50;3.23;;;19.50;78.70;;;;;;5045452;28;20454;-80
2023/08/06 00:26:08;;;;;;;6.63;3.43;;;19.40;78.70;;;;;;5046769;28;20482;-79
2023/08/06 00:28:37;;;;;;;6.03;3.37;;;19.40;78.60;;;;;;5043465;28;20462;-81
2023/08/06 00:31:06;;;;;;;7.10;3.67;;;19.30;78.70;;;;;;5045739;28;20584;-79
2023/08/06 00:33:33;;;;;;;7.50;3.17;;;19.30;78.80;;;;;;5042952;28;20459;-81
2023/08/06 00:36:02;;;;;;;5.37;3.23;;;19.30;78.90;;;;;;5044314;28;20455;-78
2023/08/06 00:38:30;;;;;;;8.03;3.70;;;19.20;79.00;;;;;;5044127;28;20877;-80
2023/08/06 00:40:58;;;;;;;5.53;3.33;;;19.20;79.00;;;;;;5046716;28;20462;-80
2023/08/06 00:43:26;;;;;;;5.70;3.07;;;19.20;79.10;;;;;;5046353;28;20951;-80
2023/08/06 00:45:56;;;;;;;5.90;3.50;;;19.20;79.10;;;;;;5037830;28;20483;-80
2023/08/06 00:48:24;;;;;;;6.70;3.10;;;19.20;79.20;;;;;;5043494;28;20557;-79
2023/08/06 00:50:53;;;;;;;5.77;3.47;;;19.20;79.20;;;;;;5042667;28;20462;-78
2023/08/06 00:53:22;;;;;;;6.30;3.33;;;19.20;79.20;;;;;;5043663;28;20473;-78
2023/08/06 00:55:51;;;;;;;6.13;3.10;;;19.20;79.30;;;;;;5047482;28;20455;-80
2023/08/06 00:58:19;;;;;;;9.20;4.07;;;19.20;79.30;;;;;;5041578;28;20545;-79
2023/08/06 01:00:48;;;;;;;5.70;3.27;;;19.20;79.30;;;;;;5043588;28;20467;-79
2023/08/06 01:03:17;;;;;;;5.70;3.60;;;19.20;79.20;;;;;;5045608;28;20538;-80
2023/08/06 01:05:45;;;;;;;7.37;3.57;;;19.20;79.30;;;;;;5038234;28;20884;-78
2023/08/06 01:08:26;;;;;;;7.80;3.17;;;19.20;79.30;;;;;;5039767;28;20459;-79
2023/08/06 01:11:06;;;;;;;6.40;3.20;;;19.20;79.30;;;;;;5043157;28;20487;-78
2023/08/06 01:13:42;;;;;;;7.70;3.10;;;19.10;79.30;;;;;;5037630;28;20459;-79
2023/08/06 01:16:11;;;;;;;8.43;3.10;;;19.10;79.30;;;;;;5060598;28;20454;-78
2023/08/06 01:18:43;;;;;;;8.60;3.33;;;19.10;79.30;;;;;;5045057;28;20463;-82
2023/08/06 01:21:13;;;;;;;8.23;3.50;;;19.10;79.30;;;;;;5043685;28;20462;-82
2023/08/06 01:23:41;;;;;;;7.50;3.70;;;19.00;79.30;;;;;;5044490;28;20462;-79
2023/08/06 01:26:16;;;;;;;6.33;3.30;;;19.10;79.40;;;;;;5048263;28;20483;-79
2023/08/06 01:28:53;;;;;;;8.40;3.77;;;19.10;79.40;;;;;;5047481;28;21278;-80
2023/08/06 01:31:27;;;;;;;7.67;3.03;;;19.10;79.40;;;;;;5049747;28;20466;-79
2023/08/06 01:33:57;;;;;;;7.97;3.57;;;19.10;79.40;;;;;;5050754;28;20462;-79
2023/08/06 01:36:27;;;;;;;7.00;3.57;;;19.10;79.30;;;;;;5042530;28;20822;-79
2023/08/06 01:38:57;;;;;;;5.00;2.90;;;19.00;79.40;;;;;;5047176;28;20462;-81
2023/08/06 01:41:25;;;;;;;6.17;3.33;;;19.10;79.40;;;;;;5074551;28;20466;-79
2023/08/06 01:43:53;;;;;;;7.67;3.30;;;19.10;79.40;;;;;;5045955;28;20450;-78
2023/08/06 01:46:21;;;;;;;6.23;3.50;;;19.00;79.40;;;;;;5048223;28;20480;-80
2023/08/06 01:48:49;;;;;;;5.60;2.87;;;19.00;79.40;;;;;;5048248;28;20853;-81
2023/08/06 01:51:17;;;;;;;7.57;3.23;;;19.00;79.30;;;;;;5044447;28;20524;-80
2023/08/06 01:53:46;;;;;;;7.00;3.43;;;19.00;79.40;;;;;;5045816;28;20494;-81
2023/08/06 01:56:14;;;;;;;7.33;3.60;;;19.00;79.30;;;;;;5043883;28;20458;-80
2023/08/06 01:58:42;;;;;;;6.07;2.93;;;19.00;79.20;;;;;;5047586;28;20462;-79
2023/08/06 02:01:10;;;;;;;5.40;2.90;;;18.90;79.20;;;;;;5045796;28;20609;-79
2023/08/06 02:03:38;;;;;;;5.80;3.03;;;18.90;79.10;;;;;;5049964;28;20557;-79
2023/08/06 02:06:09;;;;;;;6.47;2.90;;;18.90;79.10;;;;;;5043818;28;20553;-81
2023/08/06 02:08:38;;;;;;;6.53;3.00;;;18.90;79.10;;;;;;5049595;28;20466;-80
2023/08/06 02:11:08;;;;;;;5.60;3.17;;;18.80;79.10;;;;;;5043551;28;20550;-79
2023/08/06 02:13:36;;;;;;;6.40;2.67;;;18.80;79.10;;;;;;5047642;28;20512;-79
2023/08/06 02:16:04;;;;;;;5.33;3.00;;;18.80;79.00;;;;;;5053215;28;20998;-79
2023/08/06 02:18:32;;;;;;;5.70;2.60;;;18.80;79.00;;;;;;5048602;28;20469;-79
2023/08/06 02:21:01;;;;;;;6.60;3.23;;;18.70;79.00;;;;;;5050328;28;20446;-79
2023/08/06 02:23:29;;;;;;;6.67;3.20;;;18.70;79.10;;;;;;5044550;28;20488;-82
2023/08/06 02:25:59;;;;;;;6.43;3.00;;;18.60;79.20;;;;;;5049333;28;20466;-82
2023/08/06 02:28:29;;;;;;;7.13;3.13;;;18.70;79.20;;;;;;5048646;28;20463;-79
2023/08/06 02:30:57;;;;;;;5.87;3.20;;;18.70;79.10;;;;;;5045718;28;21060;-82
2023/08/06 02:33:25;;;;;;;7.80;3.20;;;18.60;79.10;;;;;;5046000;28;20483;-79
2023/08/06 02:36:00;;;;;;;6.20;3.67;;;18.70;79.20;;;;;;5045323;28;20540;-81
2023/08/06 02:38:28;;;;;;;6.27;3.60;;;18.70;79.10;;;;;;5047924;28;20537;-80
2023/08/06 02:40:57;;;;;;;5.20;3.10;;;18.60;79.10;;;;;;5041410;28;20463;-79
2023/08/06 02:44:18;;;;;;;6.30;3.27;;;18.60;79.20;;;;;;5045499;28;20458;-79
2023/08/06 02:46:51;;;;;;;5.67;2.90;;;18.70;79.20;;;;;;5073524;28;20484;-78
2023/08/06 02:49:19;;;;;;;5.73;3.10;;;18.60;79.20;;;;;;5046680;28;20464;-82
2023/08/06 02:51:47;;;;;;;4.93;2.50;;;18.60;79.20;;;;;;5043921;28;20551;-80
2023/08/06 02:54:15;;;;;;;6.70;2.83;;;18.60;79.20;;;;;;5042420;28;20494;-82
2023/08/06 02:56:44;;;;;;;5.10;2.90;;;18.70;79.30;;;;;;5063518;28;20462;-79
2023/08/06 02:59:18;;;;;;;7.13;3.17;;;18.70;79.30;;;;;;5047979;28;20466;-82
2023/08/06 03:02:07;;;;;;;5.10;2.93;;;18.60;79.30;;;;;;5047157;28;21266;-79
2023/08/06 03:04:48;;;;;;;6.20;2.87;;;18.60;79.30;;;;;;5073387;28;20524;-81
2023/08/06 03:07:18;;;;;;;6.40;2.90;;;18.60;79.40;;;;;;5042900;28;20470;-82
2023/08/06 03:09:54;;;;;;;6.47;2.90;;;18.60;79.40;;;;;;5047866;28;20927;-80
2023/08/06 03:12:22;;;;;;;5.97;2.57;;;18.60;79.30;;;;;;5046959;28;20502;-79
2023/08/06 03:14:50;;;;;;;10.50;3.37;;;18.50;79.50;;;;;;5045289;28;20988;-79
2023/08/06 03:17:34;;;;;;;7.97;3.57;;;18.50;79.60;;;;;;5073634;28;20451;-78
2023/08/06 03:20:05;;;;;;;5.13;2.90;;;18.50;79.60;;;;;;5039781;28;20461;-78
2023/08/06 03:22:34;;;;;;;6.77;3.13;;;18.40;79.70;;;;;;5042960;28;21039;-80
2023/08/06 03:25:02;;;;;;;5.20;2.70;;;18.40;79.80;;;;;;5070949;28;20964;-82
2023/08/06 03:27:30;;;;;;;5.63;3.00;;;18.40;79.80;;;;;;5039643;28;20499;-81
2023/08/06 03:29:58;;;;;;;4.70;2.50;;;18.40;79.80;;;;;;5047892;28;20491;-80
2023/08/06 03:32:27;;;;;;;7.60;3.70;;;18.40;79.80;;;;;;5036888;28;20523;-81
2023/08/06 03:34:57;;;;;;;6.43;3.10;;;18.40;79.80;;;;;;5042737;28;20465;-79
2023/08/06 03:37:29;;;;;;;5.83;2.57;;;18.40;79.80;;;;;;5069531;28;20462;-82
2023/08/06 03:39:57;;;;;;;6.90;2.87;;;18.40;79.80;;;;;;5044765;28;20463;-80
2023/08/06 03:42:25;;;;;;;5.63;2.70;;;18.40;79.90;;;;;;5043407;28;20459;-82
2023/08/06 03:44:53;;;;;;;6.37;3.37;;;18.40;79.90;;;;;;5043874;28;20463;-78
2023/08/06 03:47:22;;;;;;;6.60;3.23;;;18.40;79.90;;;;;;5042020;28;20475;-78
2023/08/06 03:49:52;;;;;;;5.50;3.00;;;18.40;79.90;;;;;;5041779;28;20498;-82
2023/08/06 03:52:24;;;;;;;6.37;3.30;;;18.40;79.70;;;;;;5042794;28;21027;-79
2023/08/06 03:54:52;;;;;;;5.70;3.53;;;18.40;79.70;;;;;;5042860;28;20498;-77
2023/08/06 03:57:20;;;;;;;5.43;3.03;;;18.30;79.70;;;;;;5045815;28;20462;-79
2023/08/06 03:59:48;;;;;;;7.43;3.20;;;18.30;79.90;;;;;;5044835;28;20554;-79
2023/08/06 04:02:24;;;;;;;6.37;2.83;;;18.30;80.00;;;;;;5041038;28;20486;-79
2023/08/06 04:04:53;;;;;;;11.60;3.40;;;18.30;79.90;;;;;;5043040;28;20469;-79
2023/08/06 04:07:22;;;;;;;9.57;2.97;;;18.30;79.90;;;;;;5045997;28;20476;-82
2023/08/06 04:09:56;;;;;;;6.30;3.13;;;18.20;79.90;;;;;;5043320;28;20639;-78
2023/08/06 04:12:24;;;;;;;7.43;3.17;;;18.30;80.00;;;;;;5058834;28;20469;-79
2023/08/06 04:14:53;;;;;;;5.90;2.63;;;18.30;80.10;;;;;;5049146;28;20964;-78
2023/08/06 04:17:21;;;;;;;5.50;3.10;;;18.30;80.00;;;;;;5038020;28;20454;-81
2023/08/06 04:19:51;;;;;;;5.53;2.93;;;18.30;80.00;;;;;;5043969;28;20480;-82
2023/08/06 04:22:19;;;;;;;5.27;3.07;;;18.30;80.00;;;;;;5039723;28;20504;-81
2023/08/06 04:24:50;;;;;;;6.20;2.97;;;18.40;80.00;;;;;;5040924;28;20527;-80
2023/08/06 04:27:20;;;;;;;7.53;3.27;;;18.40;79.90;;;;;;5046189;28;20470;-81
2023/08/06 04:29:49;;;;;;;5.80;2.53;;;18.40;79.90;;;;;;5044037;28;20540;-83
2023/08/06 04:32:19;;;;;;;6.93;3.00;;;18.40;79.80;;;;;;5044312;28;20481;-82
2023/08/06 04:34:50;;;;;;;10.00;3.33;;;18.40;79.90;;;;;;5042862;28;20475;-79
2023/08/06 04:37:19;;;;;;;7.10;3.50;;;18.40;79.80;;;;;;5041133;28;20462;-79
2023/08/06 04:39:47;;;;;;;5.60;2.90;;;18.40;79.80;;;;;;5043477;28;20572;-83
2023/08/06 04:42:15;;;;;;;6.50;3.17;;;18.40;79.80;;;;;;5043429;28;20464;-79
2023/08/06 04:44:45;;;;;;;7.47;2.97;;;18.50;79.80;;;;;;5044677;28;20471;-79
2023/08/06 04:47:13;;;;;;;5.97;3.43;;;18.50;79.80;;;;;;5045076;28;20475;-81
2023/08/06 04:49:43;;;;;;;7.97;3.30;;;18.50;79.80;;;;;;5042787;28;20887;-79
2023/08/06 04:52:10;;;;;;;6.03;3.07;;;18.50;79.90;;;;;;5043650;28;20547;-79
2023/08/06 04:54:40;;;;;;;12.40;2.90;;;18.60;79.90;;;;;;5040895;28;20462;-79
2023/08/06 04:57:08;;;;;;;5.27;2.70;;;18.60;79.70;;;;;;5038344;28;20488;-79
2023/08/06 04:59:36;;;;;;;7.40;3.40;;;18.60;79.70;;;;;;5038736;28;20500;-79
2023/08/06 05:02:06;;;;;;;7.00;3.07;;;18.60;79.70;;;;;;5039937;28;20585;-78
2023/08/06 05:04:34;;;;;;;6.43;2.67;;;18.60;79.70;;;;;;5043229;28;20519;-80
2023/08/06 05:07:04;;;;;;;8.47;3.40;;;18.60;79.60;;;;;;5043271;28;20565;-81
2023/08/06 05:09:34;;;;;;;5.40;2.93;;;18.60;79.60;;;;;;5050036;28;20847;-80
2023/08/06 05:12:02;;;;;;;5.27;2.40;;;18.60;79.60;;;;;;5040050;28;20588;-80
2023/08/06 05:14:30;;;;;;;7.37;3.30;;;18.60;79.60;;;;;;5039498;28;21002;-79
2023/08/06 05:16:58;;;;;;;5.10;2.43;;;18.50;79.70;;;;;;5038454;28;20570;-77
2023/08/06 05:19:28;;;;;;;6.20;2.63;;;18.50;79.80;;;;;;5042110;28;20494;-80
2023/08/06 05:21:56;;;;;;;6.50;2.97;;;18.60;80.10;;;;;;5037236;28;20561;-81
2023/08/06 05:24:27;;;;;;;8.00;2.70;;;18.90;81.20;;;;;;5041195;28;20561;-80
2023/08/06 05:26:56;;;;;;;4.97;2.50;;;19.50;79.50;;;;;;5042234;28;20877;-82
2023/08/06 05:29:24;;;;;;;6.70;2.83;;;19.60;78.40;;;;;;5046564;28;20477;-80
2023/08/06 05:31:52;;;;;;;5.20;2.47;;;19.60;78.10;;;;;;5054702;28;21098;-80
2023/08/06 05:34:21;;;;;;;6.97;3.10;;;19.50;78.10;;;;;;5042833;28;20470;-80
2023/08/06 05:36:50;;;;;;;6.17;2.60;;;19.30;78.20;;;;;;5054162;28;20482;-81
2023/08/06 05:39:18;;;;;;;8.30;2.60;;;19.20;78.40;;;;;;5038165;28;20474;-81
2023/08/06 05:41:47;;;;;;;6.87;2.83;;;19.10;78.50;;;;;;5038113;28;21025;-80
2023/08/06 05:44:14;;;;;;;5.40;2.60;;;19.00;78.60;;;;;;5038292;28;20986;-80
2023/08/06 05:46:43;;;;;;;7.50;3.43;;;18.90;78.60;;;;;;5043003;28;20466;-82
2023/08/06 05:49:13;;;;;;;8.53;2.97;;;18.90;78.70;;;;;;5041991;28;20539;-78
2023/08/06 05:51:41;;;;;;;6.47;2.77;;;18.80;78.70;;;;;;5041778;28;20493;-81
2023/08/06 05:54:10;;;;;;;5.67;2.83;;;18.80;78.80;;;;;;5070871;28;20532;-79
2023/08/06 05:56:38;;;;;;;6.60;2.90;;;18.70;78.80;;;;;;5046796;28;20467;-82
2023/08/06 05:59:06;;;;;;;7.30;2.60;;;18.70;78.70;;;;;;5043212;28;20474;-83
2023/08/06 06:01:35;;;;;;;8.60;3.23;;;18.70;78.80;;;;;;5039795;28;20475;-80
2023/08/06 06:04:03;;;;;;;8.13;3.37;;;18.70;78.80;;;;;;5038699;28;20467;-80
2023/08/06 06:06:31;;;;;;;6.63;2.30;;;18.70;78.70;;;;;;5043144;28;20473;-79
2023/08/06 06:08:59;;;;;;;5.30;2.60;;;18.70;78.80;;;;;;5047320;28;20497;-81
2023/08/06 06:11:28;;;;;;;6.67;3.13;;;18.60;78.70;;;;;;5040304;28;20924;-79
2023/08/06 06:13:56;;;;;;;6.07;2.50;;;18.60;78.80;;;;;;5047662;28;20546;-82
2023/08/06 06:16:24;;;;;;;7.97;2.67;;;18.60;78.80;;;;;;5048334;28;20466;-80
2023/08/06 06:18:54;;;;;;;5.57;2.37;;;18.60;78.90;;;;;;5047013;28;20451;-80
2023/08/06 06:21:22;;;;;;;8.23;2.70;;;18.60;78.90;;;;;;5043943;28;20478;-80
2023/08/06 06:23:51;;;;;;;5.73;2.13;;;18.60;78.90;;;;;;5041281;28;20475;-81
2023/08/06 06:26:19;;;;;;;5.77;2.17;;;18.60;78.90;;;;;;5043820;28;20956;-81
2023/08/06 06:28:49;;;;;;;7.20;2.33;;;18.60;79.00;;;;;;5042304;28;20486;-80
2023/08/06 06:31:17;;;;;;;7.33;1.90;;;18.70;79.00;;;;;;5036597;28;20479;-79
2023/08/06 06:33:45;;;;;;;8.00;1.77;;;18.60;78.90;;;;;;5048067;28;20864;-80
2023/08/06 06:36:13;;;;;;;6.30;2.00;;;18.60;79.00;;;;;;5042242;28;20502;-80
2023/08/06 06:38:41;;;;;;;4.70;1.90;;;18.70;79.00;;;;;;5047647;28;20804;-80
2023/08/06 06:41:09;;;;;;;5.77;2.30;;;18.60;78.90;;;;;;5041469;28;20511;-79
2023/08/06 06:43:39;;;;;;;4.40;1.60;;;18.70;79.00;;;;;;5042731;28;20870;-79
2023/08/06 06:46:08;;;;;;;5.17;1.90;;;18.60;78.90;;;;;;5044179;28;20481;-80
2023/08/06 06:48:36;;;;;;;5.23;1.50;;;18.60;79.00;;;;;;5044657;28;20462;-79
2023/08/06 06:51:04;;;;;;;4.30;1.60;;;18.60;79.00;;;;;;5072364;28;20537;-79
2023/08/06 06:53:32;;;;;;;4.73;1.70;;;18.60;79.00;;;;;;5044004;28;20470;-78
2023/08/06 06:56:03;;;;;;;4.77;1.57;;;18.70;79.10;;;;;;5038254;28;20493;-78
2023/08/06 06:58:32;;;;;;;6.10;1.80;;;18.70;79.10;;;;;;5070617;28;20566;-80
2023/08/06 07:01:00;;;;;;;5.47;1.30;;;18.70;79.10;;;;;;5076998;28;20490;-79
2023/08/06 07:03:29;;;;;;;4.47;1.70;;;18.80;79.20;;;;;;5045708;28;20473;-81
2023/08/06 07:05:59;;;;;;;4.63;1.10;;;18.80;79.20;;;;;;5044816;28;20561;-82
2023/08/06 07:08:27;;;;;;;4.03;1.23;;;18.80;79.20;;;;;;5071876;28;20836;-79
2023/08/06 07:11:02;;;;;;;5.30;0.80;;;18.80;79.10;;;;;;5044237;28;20520;-79
2023/08/06 07:13:30;;;;;;;4.50;1.20;;;18.80;79.10;;;;;;5072367;28;20546;-80
2023/08/06 07:15:58;;;;;;;4.00;0.77;;;18.80;79.10;;;;;;5041756;28;20502;-79
2023/08/06 07:18:26;;;;;;;4.17;0.90;;;18.80;79.00;;;;;;5044391;28;20484;-80
2023/08/06 07:20:58;;;;;;;4.30;0.93;;;18.80;79.00;;;;;;5043883;28;20466;-81
2023/08/06 07:23:26;;;;;;;3.40;0.83;;;18.90;79.00;;;;;;5045244;28;20569;-80
2023/08/06 07:25:54;;;;;;;3.93;1.03;;;18.90;79.00;;;;;;5042319;28;20471;-80
2023/08/06 07:28:23;;;;;;;9.33;1.10;;;18.90;79.00;;;;;;5067700;28;20455;-80
2023/08/06 07:30:51;;;;;;;3.40;1.10;;;18.90;79.00;;;;;;5037153;28;20497;-83
2023/08/06 07:33:19;;;;;;;4.93;0.87;;;18.90;79.10;;;;;;5041457;28;20603;-82
2023/08/06 07:35:47;;;;;;;6.07;1.10;;;19.00;79.10;;;;;;5074680;28;20465;-83
2023/08/06 07:38:17;;;;;;;7.67;1.20;;;19.00;79.10;;;;;;5044192;28;20995;-81
2023/08/06 07:40:45;;;;;;;4.90;1.20;;;19.00;79.10;;;;;;5048010;28;20455;-83
2023/08/06 07:43:14;;;;;;;4.07;0.83;;;19.00;79.00;;;;;;5046938;28;20574;-81
2023/08/06 07:45:41;;;;;;;3.70;0.80;;;19.00;79.10;;;;;;5048362;28;21175;-81
2023/08/06 07:48:11;;;;;;;4.40;1.03;;;18.90;79.10;;;;;;5050291;28;20933;-80
2023/08/06 07:50:38;;;;;;;3.57;0.73;;;18.90;79.10;;;;;;5047275;28;20477;-82
2023/08/06 07:53:07;;;;;;;6.00;0.73;;;18.90;79.20;;;;;;5048533;28;20546;-82
2023/08/06 07:55:36;;;;;;;3.70;1.00;;;18.90;79.30;;;;;;5044558;28;20472;-82
2023/08/06 07:58:04;;;;;;;4.33;0.80;;;18.90;79.30;;;;;;5043859;28;20467;-83
2023/08/06 08:00:33;;;;;;;4.50;0.70;;;18.90;79.40;;;;;;5046563;28;20469;-81
2023/08/06 08:03:01;;;;;;;3.50;0.70;;;18.90;79.40;;;;;;5045997;28;20824;-84
2023/08/06 08:05:29;;;;;;;3.10;0.70;;;18.90;79.40;;;;;;5043743;28;20501;-81
2023/08/06 08:07:57;;;;;;;3.20;0.60;;;18.90;79.50;;;;;;5044044;28;20494;-80
2023/08/06 08:10:25;;;;;;;4.70;0.70;;;18.90;79.50;;;;;;5042346;28;20483;-82
2023/08/06 08:12:58;;;;;;;3.87;0.50;;;18.80;79.50;;;;;;5047239;28;20486;-80
2023/08/06 08:15:26;;;;;;;5.13;1.10;;;18.90;79.60;;;;;;5063073;28;20451;-81
2023/08/06 08:17:54;;;;;;;4.07;0.73;;;18.90;79.70;;;;;;5048770;28;20538;-81
2023/08/06 08:20:23;;;;;;;3.90;0.57;;;18.90;79.60;;;;;;5042471;28;20512;-82
2023/08/06 08:22:51;;;;;;;3.77;0.60;;;18.90;79.50;;;;;;5073244;28;20558;-82
2023/08/06 08:25:20;;;;;;;4.93;0.53;;;18.90;79.60;;;;;;5047379;28;20937;-82
2023/08/06 08:27:48;;;;;;;3.30;0.50;;;18.90;79.60;;;;;;5048195;28;20458;-80
2023/08/06 08:30:17;;;;;;;3.03;0.63;;;19.00;79.80;;;;;;5042871;28;20514;-82
2023/08/06 08:32:46;;;;;;;3.10;0.40;;;19.00;79.80;;;;;;5041498;28;20466;-83
2023/08/06 08:35:15;;;;;;;3.73;0.83;;;19.00;79.80;;;;;;5043713;28;20494;-84
2023/08/06 08:37:44;;;;;;;3.00;0.43;;;19.10;79.70;;;;;;5040422;28;20934;-82
2023/08/06 08:40:12;;;;;;;3.20;0.60;;;19.10;79.80;;;;;;5047711;28;20477;-81
2023/08/06 08:42:40;;;;;;;2.87;0.40;;;19.20;79.60;;;;;;5046214;28;20546;-80
2023/08/06 08:45:13;;;;;;;3.60;0.80;;;19.20;79.50;;;;;;5044290;28;20455;-84
2023/08/06 08:47:44;;;;;;;2.90;0.40;;;19.20;79.50;;;;;;5052933;28;20469;-81
2023/08/06 08:50:13;;;;;;;3.30;0.50;;;19.20;79.40;;;;;;5045272;28;20494;-83
2023/08/06 08:52:41;;;;;;;4.27;0.53;;;19.30;79.30;;;;;;5046990;28;20446;-85
2023/08/06 08:55:10;;;;;;;3.23;0.50;;;19.30;79.20;;;;;;5039456;28;20520;-84
2023/08/06 08:57:38;;;;;;;3.00;0.40;;;19.30;79.20;;;;;;5045468;28;20550;-85
2023/08/06 09:00:07;;;;;;;3.00;0.43;;;19.40;79.30;;;;;;5039672;28;20469;-79
2023/08/06 09:02:38;;;;;;;2.90;0.43;;;19.40;79.10;;;;;;5044961;28;20469;-83
2023/08/06 09:05:09;;;;;;;3.53;0.40;;;19.40;78.90;;;;;;5070491;28;20466;-82
2023/08/06 09:07:44;;;;;;;2.90;0.30;;;19.40;78.80;;;;;;5047210;28;20481;-83
2023/08/06 09:10:19;;;;;;;3.40;0.60;;;19.40;78.80;;;;;;5041111;28;20477;-83
2023/08/06 09:12:49;;;;;;;3.00;0.50;;;19.40;78.70;;;;;;5038039;28;20508;-84
2023/08/06 09:15:17;;;;;;;2.90;0.50;;;19.30;78.80;;;;;;5047416;28;20485;-81
2023/08/06 09:17:45;;;;;;;3.83;0.30;;;19.30;78.70;;;;;;5041940;28;20972;-81
2023/08/06 09:20:16;;;;;;;4.90;0.40;;;19.30;78.80;;;;;;5042294;28;20466;-87
2023/08/06 09:22:48;;;;;;;2.93;0.40;;;19.30;78.80;;;;;;5048633;28;21149;-82
2023/08/06 09:25:24;;;;;;;3.47;0.60;;;19.30;79.00;;;;;;5048734;28;20458;-81
2023/08/06 09:27:58;;;;;;;3.30;0.50;;;19.40;79.10;;;;;;5046726;28;20454;-82
2023/08/06 09:30:33;;;;;;;2.90;0.50;;;19.50;79.30;;;;;;5046967;28;20470;-82
2023/08/06 09:33:03;;;;;;;3.00;0.60;;;19.50;79.20;;;;;;5040396;28;20516;-81
2023/08/06 09:35:32;;;;;;;3.60;0.50;;;19.50;79.10;;;;;;5045897;28;20455;-83
2023/08/06 09:38:08;;;;;;;2.90;0.40;;;19.60;79.20;;;;;;5047512;28;20498;-86
2023/08/06 09:40:36;;;;;;;4.47;0.60;;;19.60;79.20;;;;;;5044328;28;21071;-83
2023/08/06 09:43:05;;;;;;;3.00;0.50;;;19.70;79.10;;;;;;5040380;28;20533;-83
2023/08/06 09:45:35;;;;;;;10.60;0.60;;;19.70;79.00;;;;;;5042869;28;20440;-85
2023/08/06 09:48:05;;;;;;;3.27;0.43;;;19.70;78.90;;;;;;5047249;28;20470;-83
2023/08/06 09:50:38;;;;;;;3.10;0.60;;;19.70;78.80;;;;;;5046650;28;20512;-83
2023/08/06 09:53:08;;;;;;;3.10;0.50;;;19.80;78.80;;;;;;5056337;28;20450;-83
2023/08/06 09:55:38;;;;;;;3.10;0.60;;;19.80;78.70;;;;;;5049848;28;20454;-83
2023/08/06 09:58:08;;;;;;;2.90;0.50;;;19.80;78.50;;;;;;5045665;28;20466;-83
2023/08/06 10:00:36;;;;;;;7.17;0.70;;;19.80;78.40;;;;;;5047918;28;20470;-83
2023/08/06 10:03:08;;;;;;;5.03;0.63;;;19.80;78.50;;;;;;5049560;28;20462;-83
2023/08/06 10:05:39;;;;;;;3.13;0.67;;;19.80;78.60;;;;;;5050720;28;20520;-83
2023/08/06 10:08:08;;;;;;;3.03;0.50;;;19.80;78.60;;;;;;5048597;28;20948;-83
2023/08/06 10:10:37;;;;;;;3.20;0.70;;;19.90;78.60;;;;;;5078068;28;21066;-83
2023/08/06 10:13:07;;;;;;;3.20;0.50;;;19.90;78.60;;;;;;5048291;28;20545;-83
2023/08/06 10:15:36;;;;;;;3.50;0.60;;;20.00;78.40;;;;;;5050789;28;20478;-84
2023/08/06 10:18:05;;;;;;;3.30;0.63;;;20.10;78.20;;;;;;5046035;28;21029;-84
2023/08/06 10:20:35;;;;;;;3.20;0.50;;;20.20;78.00;;;;;;5074437;28;20459;-83
2023/08/06 10:23:05;;;;;;;3.20;0.60;;;20.20;77.70;;;;;;5051570;28;20462;-84
2023/08/06 10:25:36;;;;;;;3.00;0.57;;;20.30;77.60;;;;;;5046531;28;20462;-82
2023/08/06 10:28:09;;;;;;;6.30;0.60;;;20.30;77.50;;;;;;5046459;28;20473;-82
2023/08/06 10:30:49;;;;;;;3.37;0.77;;;20.30;77.50;;;;;;5046922;28;20470;-83
2023/08/06 10:33:22;;;;;;;3.60;0.90;;;20.40;77.30;;;;;;5041096;28;20447;-85
2023/08/06 10:35:53;;;;;;;3.77;0.70;;;20.40;77.00;;;;;;5064285;28;20813;-84
2023/08/06 10:38:31;;;;;;;3.20;0.63;;;20.40;76.70;;;;;;5048261;28;20473;-83
2023/08/06 10:41:03;;;;;;;3.10;0.60;;;20.40;76.50;;;;;;5073826;28;20953;-85
2023/08/06 10:43:34;;;;;;;4.03;0.60;;;20.30;76.40;;;;;;5048386;28;20453;-84
2023/08/06 10:46:11;;;;;;;5.40;0.70;;;20.30;76.40;;;;;;5047194;28;20899;-83
2023/08/06 10:48:41;;;;;;;3.00;0.50;;;20.40;76.60;;;;;;5045778;28;20457;-85
2023/08/06 10:51:12;;;;;;;3.53;0.70;;;20.40;76.50;;;;;;5044898;28;20480;-82
2023/08/06 10:53:44;;;;;;;4.30;0.80;;;20.30;76.60;;;;;;5042309;28;20480;-81
2023/08/06 10:56:18;;;;;;;5.00;0.50;;;20.40;76.70;;;;;;5045343;28;20502;-81
2023/08/06 10:58:49;;;;;;;3.77;0.80;;;20.40;76.70;;;;;;5045245;28;20494;-83
2023/08/06 11:01:24;;;;;;;2.93;0.50;;;20.40;76.70;;;;;;5045225;28;21190;-85
2023/08/06 11:03:54;;;;;;;2.90;0.60;;;20.50;76.70;;;;;;5044787;28;20464;-84
2023/08/06 11:06:27;;;;;;;3.30;0.60;;;20.50;76.60;;;;;;5047584;28;20501;-84
2023/08/06 11:08:56;;;;;;;4.07;0.50;;;20.60;76.30;;;;;;5075327;28;20454;-82
2023/08/06 11:11:25;;;;;;;3.00;0.43;;;20.60;76.10;;;;;;5043579;28;20965;-84
2023/08/06 11:13:56;;;;;;;3.10;0.50;;;20.70;75.90;;;;;;5044121;28;21263;-84
2023/08/06 11:16:25;;;;;;;3.10;0.40;;;20.70;75.80;;;;;;5042608;28;20517;-83
2023/08/06 11:18:56;;;;;;;2.90;0.40;;;20.80;75.40;;;;;;5039001;28;20456;-83
2023/08/06 11:21:25;;;;;;;5.87;1.07;;;20.80;75.20;;;;;;5040674;28;20466;-83
2023/08/06 11:23:56;;;;;;;2.90;0.40;;;20.80;75.10;;;;;;5043488;28;20999;-80
2023/08/06 11:26:24;;;;;;;6.00;0.60;;;20.80;74.80;;;;;;5074928;28;20465;-84
2023/08/06 11:28:52;;;;;;;3.50;0.50;;;20.80;74.40;;;;;;5045801;28;20545;-84
2023/08/06 11:31:21;;;;;;;4.13;0.70;;;20.80;74.30;;;;;;5046159;28;20483;-83
2023/08/06 11:33:53;;;;;;;4.67;0.50;;;20.60;74.50;;;;;;5044773;28;20904;-84
2023/08/06 11:36:31;;;;;;;3.00;0.50;;;20.40;74.50;;;;;;5045456;28;20875;-84
2023/08/06 11:39:02;;;;;;;3.20;0.40;;;20.20;74.80;;;;;;5076240;28;20484;-83
2023/08/06 11:41:33;;;;;;;3.20;0.50;;;20.10;75.00;;;;;;5048924;28;20553;-86
2023/08/06 11:44:04;;;;;;;3.20;0.50;;;20.00;75.40;;;;;;5044121;28;20467;-83
2023/08/06 11:46:55;;;;;;;2.90;0.40;;;19.90;75.80;;;;;;5042588;28;20554;-81
2023/08/06 11:49:39;;;;;;;3.20;0.60;;;20.00;76.40;;;;;;5044642;28;20476;-84
2023/08/06 11:52:11;;;;;;;3.10;0.50;;;20.00;76.80;;;;;;5045196;28;20478;-83
2023/08/06 11:54:40;;;;;;;4.40;0.40;;;20.10;76.90;;;;;;5044590;28;20494;-84
2023/08/06 11:57:10;;;;;;;2.87;0.40;;;20.20;77.40;;;;;;5045309;28;21010;-83
2023/08/06 11:59:40;;;;;;;3.93;0.50;;;20.20;77.60;;;;;;5042743;28;20493;-84
2023/08/06 12:02:13;;;;;;;3.10;0.40;;;20.20;77.70;;;;;;5046012;28;20896;-83
2023/08/06 12:05:00;;;;;;;3.00;0.43;;;20.30;77.90;;;;;;5046773;28;20466;-84
2023/08/06 12:07:30;;;;;;;3.20;0.50;;;20.30;77.90;;;;;;5042062;28;20466;-84
2023/08/06 12:10:00;;;;;;;3.10;0.53;;;20.20;77.80;;;;;;5040397;28;20569;-87
2023/08/06 12:12:29;;;;;;;4.30;0.70;;;20.20;77.90;;;;;;5042385;28;20497;-83
2023/08/06 12:14:57;;;;;;;3.30;0.90;;;20.20;77.90;;;;;;5045807;28;20553;-85
2023/08/06 12:17:26;;;;;;;3.10;0.40;;;20.10;78.00;;;;;;5072236;28;20464;-87
2023/08/06 12:19:58;;;;;;;3.07;0.50;;;20.10;78.10;;;;;;5067602;28;20481;-84
2023/08/06 12:22:34;;;;;;;3.20;0.50;;;20.00;78.20;;;;;;5043665;28;20458;-84
2023/08/06 12:25:07;;;;;;;3.10;0.50;;;20.00;78.40;;;;;;5043531;28;20520;-83
2023/08/06 12:27:36;;;;;;;3.00;0.60;;;20.00;78.60;;;;;;5043707;28;20529;-83
2023/08/06 12:30:07;;;;;;;3.00;0.60;;;20.10;78.80;;;;;;5047827;28;20474;-82
2023/08/06 12:32:35;;;;;;;3.67;0.90;;;20.10;78.80;;;;;;5047483;28;20494;-85
2023/08/06 12:35:04;;;;;;;2.90;0.50;;;20.10;78.80;;;;;;5047776;28;20516;-83
2023/08/06 12:37:32;;;;;;;2.90;0.50;;;20.10;78.80;;;;;;5037513;28;20471;-84
2023/08/06 12:40:05;;;;;;;6.03;0.50;;;20.00;78.90;;;;;;5071049;28;20471;-84
2023/08/06 12:42:51;;;;;;;2.93;0.57;;;19.90;78.80;;;;;;5041466;28;20978;-84
2023/08/06 12:45:25;;;;;;;3.93;0.50;;;19.80;78.90;;;;;;5038073;28;20512;-83
2023/08/06 12:47:55;;;;;;;2.90;0.40;;;19.80;79.20;;;;;;5041275;28;20476;-83
2023/08/06 12:50:29;;;;;;;3.40;0.50;;;19.80;79.30;;;;;;5045098;28;20473;-84
2023/08/06 12:52:59;;;;;;;2.80;0.40;;;19.80;79.40;;;;;;5042943;28;20825;-82
2023/08/06 12:55:40;;;;;;;2.90;0.40;;;19.80;79.20;;;;;;5042740;28;21188;-83
2023/08/06 12:58:14;;;;;;;3.00;0.40;;;19.80;79.10;;;;;;5043686;28;20800;-84
2023/08/06 13:00:42;;;;;;;2.87;0.40;;;19.70;79.00;;;;;;5044623;28;20558;-84